This is the latest recevied weather packets stored in our database for station/object KD0RIH. If no packets are shown the sender has not sent any weather packets the latest 10 day(s).
| Time | Temp. | Humidity | Pressure | Rain* | Wind** | Luminosity | Snow |
|---|---|---|---|---|---|---|---|
| 1777921455 | 27.78° C | 36% | 1001.9 hPa | 0 mm | - | 939 W/m² | - |
| 1777921152 | 27.78° C | 35% | 1002.1 hPa | 0 mm | - | 947 W/m² | - |
| 1777920849 | 28.33° C | 34% | 1001.8 hPa | 0 mm | - | 953 W/m² | - |
| 1777920545 | 27.78° C | 37% | 1001.9 hPa | 0 mm | - | 955 W/m² | - |
| 1777920241 | 28.89° C | 33% | 1002 hPa | 0 mm | - | 960 W/m² | - |
| 1777919937 | 28.89° C | 34% | 1001.9 hPa | 0 mm | - | 964 W/m² | - |
| 1777919635 | 28.33° C | 36% | 1001.9 hPa | 0 mm | - | 967 W/m² | - |
| 1777919331 | 27.22° C | 37% | 1002.3 hPa | 0 mm | - | 970 W/m² | - |
| 1777919029 | 27.22° C | 37% | 1002.1 hPa | 0 mm | - | 970 W/m² | - |
| 1777918725 | 26.67° C | 35% | 1002.2 hPa | 0 mm | - | 972 W/m² | - |
| 1777918423 | 26.67° C | 37% | 1002.2 hPa | 0 mm | - | 971 W/m² | - |
| 1777918122 | 27.22° C | 35% | 1002.1 hPa | 0 mm | - | 974 W/m² | - |
| 1777917820 | 26.67° C | 37% | 1002.2 hPa | 0 mm | - | 973 W/m² | - |
| 1777917518 | 27.22° C | 36% | 1002.3 hPa | 0 mm | - | 972 W/m² | - |
| 1777917214 | 27.22° C | 38% | 1002.2 hPa | 0 mm | - | 973 W/m² | - |
| 1777916913 | 27.22° C | 35% | 1002.2 hPa | 0 mm | - | 973 W/m² | - |
| 1777916610 | 27.22° C | 36% | 1002.3 hPa | 0 mm | - | 972 W/m² | - |
| 1777916307 | 26.67° C | 37% | 1002.3 hPa | 0 mm | - | 970 W/m² | - |
| 1777916003 | 26.67° C | 37% | 1002.4 hPa | 0 mm | - | 968 W/m² | - |
| 1777915700 | 26.67° C | 37% | 1002.3 hPa | 0 mm | - | 965 W/m² | - |
| 1777915397 | 26.67° C | 37% | 1002.5 hPa | 0 mm | - | 963 W/m² | - |
| 1777915093 | 25.56° C | 40% | 1002.5 hPa | 0 mm | - | 957 W/m² | - |
| 1777914790 | 25.56° C | 39% | 1002.5 hPa | 0 mm | - | 953 W/m² | - |
| 1777914487 | 26.11° C | 38% | 1002.7 hPa | 0 mm | - | 948 W/m² | - |
| 1777914184 | 26.11° C | 38% | 1002.7 hPa | 0 mm | - | 943 W/m² | - |
* Rain latest hour (hover to see other rain measurements)
** Current wind speed in m/s (hover to see current wind gust speed)